Time;durP1;ratioP1;P1;durP2;ratioP2;P2;SDS_P1;SDS_P2;PMS_P1;PMS_P2;Temp;Humidity;BMP_temperature;BMP_pressure;BME280_temperature;BME280_humidity;BME280_pressure;Samples;Min_cycle;Max_cycle;Signal;HPM_P1;HPM_P2
2022/02/26 00:00:58;;;;;;;38.70;14.50;;;2.50;99.90;;;;;;5028531;28;20041;-78
2022/02/26 00:03:25;;;;;;;58.25;15.55;;;2.50;99.90;;;;;;5028867;28;20030;-79
2022/02/26 00:05:52;;;;;;;51.47;15.13;;;2.50;99.90;;;;;;5026061;28;20061;-78
2022/02/26 00:08:19;;;;;;;42.75;14.32;;;2.50;99.90;;;;;;5019458;28;20048;-79
2022/02/26 00:10:46;;;;;;;48.92;16.13;;;2.60;99.90;;;;;;5043991;28;20486;-80
2022/02/26 00:13:12;;;;;;;40.33;13.68;;;2.60;99.90;;;;;;5052515;28;20056;-78
2022/02/26 00:15:39;;;;;;;51.95;15.23;;;2.50;99.90;;;;;;5046524;28;20129;-78
2022/02/26 00:18:06;;;;;;;41.13;15.65;;;2.50;99.90;;;;;;5005917;28;20049;-78
2022/02/26 00:20:32;;;;;;;57.22;14.18;;;2.60;99.90;;;;;;4996495;28;20150;-78
2022/02/26 00:22:59;;;;;;;56.47;14.38;;;2.50;99.90;;;;;;4994739;28;20081;-78
2022/02/26 00:25:26;;;;;;;44.08;13.13;;;2.50;99.90;;;;;;4994280;28;20060;-79
2022/02/26 00:27:53;;;;;;;52.22;14.32;;;2.50;99.90;;;;;;5031108;28;20049;-78
2022/02/26 00:30:20;;;;;;;38.60;13.73;;;2.60;99.90;;;;;;5014535;28;20479;-78
2022/02/26 00:32:47;;;;;;;52.40;14.48;;;2.60;99.90;;;;;;5031100;28;20049;-78
2022/02/26 00:35:14;;;;;;;62.25;15.55;;;2.60;99.90;;;;;;5014537;28;20136;-78
2022/02/26 00:37:41;;;;;;;54.22;15.18;;;2.60;99.90;;;;;;5013132;28;20570;-78
2022/02/26 00:40:08;;;;;;;40.55;13.10;;;2.50;99.90;;;;;;5043059;28;20056;-78
2022/02/26 00:42:35;;;;;;;49.45;14.88;;;2.50;99.90;;;;;;5015374;28;20089;-78
2022/02/26 00:45:03;;;;;;;57.42;15.52;;;2.50;99.90;;;;;;5031741;28;20052;-78
2022/02/26 00:47:30;;;;;;;59.88;16.23;;;2.50;99.90;;;;;;5019663;28;20133;-78
2022/02/26 00:49:56;;;;;;;57.60;15.48;;;2.50;99.90;;;;;;5025218;28;20293;-78
2022/02/26 00:52:30;;;;;;;46.92;12.18;;;2.50;99.90;;;;;;5012369;28;20042;-78
2022/02/26 00:54:58;;;;;;;49.75;13.48;;;2.50;99.90;;;;;;5018121;28;20064;-78
2022/02/26 00:57:25;;;;;;;52.42;12.63;;;2.40;99.90;;;;;;5031031;28;20252;-78
2022/02/26 00:59:53;;;;;;;57.08;14.45;;;2.40;99.90;;;;;;5029804;28;20053;-78
2022/02/26 01:02:20;;;;;;;54.38;14.10;;;2.40;99.90;;;;;;5029336;28;20119;-80
2022/02/26 01:04:48;;;;;;;58.92;13.88;;;2.40;99.90;;;;;;5029315;28;20048;-78
2022/02/26 01:07:15;;;;;;;68.72;13.25;;;2.40;99.90;;;;;;5009722;28;20064;-80
2022/02/26 01:09:42;;;;;;;47.00;14.10;;;2.40;99.90;;;;;;5026799;28;20037;-79
2022/02/26 01:12:10;;;;;;;57.38;15.15;;;2.30;99.90;;;;;;5020593;28;20053;-79
2022/02/26 01:14:37;;;;;;;52.78;14.07;;;2.30;99.90;;;;;;5018756;28;20046;-79
2022/02/26 01:17:06;;;;;;;59.35;15.38;;;2.30;99.90;;;;;;5032708;28;20053;-79
2022/02/26 01:19:33;;;;;;;55.67;14.82;;;2.30;99.90;;;;;;5023693;28;20535;-79
2022/02/26 01:22:00;;;;;;;45.97;15.20;;;2.30;99.90;;;;;;4997371;28;20057;-79
2022/02/26 01:24:27;;;;;;;65.97;15.82;;;2.20;99.90;;;;;;4997099;28;20527;-79
2022/02/26 01:26:55;;;;;;;65.45;15.38;;;2.30;99.90;;;;;;5014591;28;20057;-79
2022/02/26 01:29:21;;;;;;;59.58;16.13;;;2.20;99.90;;;;;;5011090;28;20041;-79
2022/02/26 01:31:48;;;;;;;60.47;15.65;;;2.20;99.90;;;;;;5012107;28;20462;-78
2022/02/26 01:34:15;;;;;;;54.78;14.85;;;2.20;99.90;;;;;;5012170;28;20053;-77
2022/02/26 01:36:42;;;;;;;58.63;15.55;;;2.30;99.90;;;;;;5009404;28;20258;-78
2022/02/26 01:39:10;;;;;;;63.80;16.58;;;2.20;99.90;;;;;;5031902;28;20041;-77
2022/02/26 01:41:38;;;;;;;52.20;16.58;;;2.20;99.90;;;;;;5023041;28;20045;-78
2022/02/26 01:44:06;;;;;;;62.70;16.48;;;2.10;99.90;;;;;;5029298;28;20088;-78
2022/02/26 01:46:34;;;;;;;63.35;15.93;;;2.10;99.90;;;;;;5042269;28;20419;-78
2022/02/26 01:49:05;;;;;;;61.70;16.48;;;2.10;99.90;;;;;;5016450;28;20528;-78
2022/02/26 01:51:33;;;;;;;65.45;17.55;;;2.10;99.90;;;;;;4989105;28;20053;-78
2022/02/26 01:53:59;;;;;;;59.30;16.35;;;2.20;99.90;;;;;;4985368;28;20054;-78
2022/02/26 01:56:26;;;;;;;59.97;16.13;;;2.10;99.90;;;;;;5011616;28;20144;-77
2022/02/26 01:58:53;;;;;;;65.13;17.88;;;2.10;99.90;;;;;;4992118;28;20062;-78
2022/02/26 02:01:20;;;;;;;67.18;18.92;;;2.10;99.90;;;;;;5010722;28;20116;-80
2022/02/26 02:03:47;;;;;;;62.25;17.65;;;2.10;99.90;;;;;;5028343;28;20132;-77
2022/02/26 02:06:15;;;;;;;64.55;17.25;;;2.10;99.90;;;;;;5008745;28;20099;-78
2022/02/26 02:08:43;;;;;;;58.28;16.08;;;2.00;99.90;;;;;;5037892;28;20073;-77
2022/02/26 02:11:11;;;;;;;70.55;16.88;;;2.00;99.90;;;;;;5017424;28;20049;-78
2022/02/26 02:13:37;;;;;;;70.20;16.65;;;2.00;99.90;;;;;;5012170;28;20099;-78
2022/02/26 02:16:05;;;;;;;63.92;18.88;;;2.00;99.90;;;;;;5013053;28;20492;-78
2022/02/26 02:18:32;;;;;;;73.28;17.98;;;2.00;99.90;;;;;;5002990;28;20180;-78
2022/02/26 02:21:00;;;;;;;65.57;18.38;;;2.00;99.90;;;;;;5009099;28;20061;-78
2022/02/26 02:23:26;;;;;;;83.72;19.88;;;2.00;99.90;;;;;;5031554;28;20104;-78
2022/02/26 02:25:54;;;;;;;74.30;17.90;;;2.00;99.90;;;;;;5032367;28;20076;-78
2022/02/26 02:28:23;;;;;;;78.05;19.65;;;2.10;99.90;;;;;;5032301;28;20416;-78
2022/02/26 02:30:50;;;;;;;61.83;16.55;;;2.00;99.90;;;;;;5013317;28;20274;-78
2022/02/26 02:33:18;;;;;;;68.80;19.67;;;2.00;99.90;;;;;;5014054;28;20109;-78
2022/02/26 02:35:46;;;;;;;76.22;18.90;;;2.10;99.90;;;;;;5009549;28;20156;-77
2022/02/26 02:38:17;;;;;;;64.50;19.13;;;2.00;99.90;;;;;;5009240;28;20045;-78
2022/02/26 02:40:47;;;;;;;65.15;18.83;;;2.00;99.90;;;;;;5007594;28;20079;-77
2022/02/26 02:43:14;;;;;;;72.07;18.15;;;2.00;99.90;;;;;;5025650;28;20072;-77
2022/02/26 02:45:41;;;;;;;91.65;19.58;;;2.00;99.90;;;;;;5025506;28;20060;-77
2022/02/26 02:48:08;;;;;;;58.13;16.90;;;2.00;99.90;;;;;;5003831;28;20077;-77
2022/02/26 02:50:35;;;;;;;74.63;20.52;;;2.00;99.90;;;;;;4983518;28;20045;-77
2022/02/26 02:53:02;;;;;;;64.65;19.05;;;2.00;99.90;;;;;;5004518;28;20249;-77
2022/02/26 02:55:29;;;;;;;68.75;19.45;;;2.00;99.90;;;;;;5011951;28;20075;-77
2022/02/26 02:57:55;;;;;;;64.57;18.85;;;2.00;99.90;;;;;;5016476;28;20054;-77
2022/02/26 03:00:24;;;;;;;69.00;19.48;;;2.00;99.90;;;;;;5023362;28;20072;-77
2022/02/26 03:02:51;;;;;;;74.07;19.98;;;2.00;99.90;;;;;;5005448;28;20498;-77
2022/02/26 03:05:20;;;;;;;79.60;19.15;;;2.00;99.90;;;;;;5004521;28;20056;-77
2022/02/26 03:07:51;;;;;;;71.03;20.13;;;1.90;99.90;;;;;;5004881;28;20073;-77
2022/02/26 03:10:19;;;;;;;64.45;19.48;;;1.90;99.90;;;;;;5029374;28;20041;-77
2022/02/26 03:12:51;;;;;;;68.32;20.50;;;1.90;99.90;;;;;;5010837;28;20128;-77
2022/02/26 03:15:19;;;;;;;77.45;20.42;;;1.80;99.90;;;;;;5023700;28;20053;-77
2022/02/26 03:17:46;;;;;;;75.75;19.95;;;1.80;99.90;;;;;;4999120;28;20061;-77
2022/02/26 03:20:13;;;;;;;62.45;19.63;;;1.80;99.90;;;;;;4997863;28;20465;-77
2022/02/26 03:22:40;;;;;;;71.35;20.40;;;1.80;99.90;;;;;;4988060;28;20140;-77
2022/02/26 03:25:08;;;;;;;68.43;20.23;;;1.80;99.90;;;;;;5003946;28;20057;-77
2022/02/26 03:27:34;;;;;;;65.30;21.95;;;1.80;99.90;;;;;;4988909;28;20119;-77
2022/02/26 03:30:02;;;;;;;79.47;19.17;;;1.80;99.90;;;;;;5005209;28;20053;-77
2022/02/26 03:32:29;;;;;;;74.20;20.92;;;1.80;99.90;;;;;;5004219;28;20071;-77
2022/02/26 03:34:56;;;;;;;67.97;21.13;;;1.80;99.90;;;;;;5002186;28;20046;-77
2022/02/26 03:37:24;;;;;;;73.63;18.95;;;1.80;99.90;;;;;;5025738;28;20045;-78
2022/02/26 03:39:51;;;;;;;63.88;21.17;;;1.80;99.90;;;;;;5019117;28;20041;-78
2022/02/26 03:42:17;;;;;;;86.95;22.02;;;1.80;99.90;;;;;;5011738;28;20106;-78
2022/02/26 03:44:47;;;;;;;70.07;20.65;;;1.80;99.90;;;;;;5010476;28;20050;-78
2022/02/26 03:47:18;;;;;;;76.53;19.98;;;1.80;99.90;;;;;;5025865;28;20069;-77
2022/02/26 03:49:46;;;;;;;70.13;21.65;;;1.90;99.90;;;;;;5003365;28;20099;-78
2022/02/26 03:52:13;;;;;;;81.63;20.35;;;1.80;99.90;;;;;;4993661;28;20042;-78
2022/02/26 03:54:40;;;;;;;76.63;19.35;;;1.80;99.90;;;;;;5023595;28;20045;-78
2022/02/26 03:57:07;;;;;;;66.68;19.98;;;1.80;99.90;;;;;;5006023;28;20617;-78
2022/02/26 03:59:34;;;;;;;67.22;19.85;;;1.90;99.90;;;;;;5010848;28;20076;-77
2022/02/26 04:02:00;;;;;;;64.72;18.65;;;1.80;99.90;;;;;;5009619;28;20049;-78
2022/02/26 04:04:34;;;;;;;64.28;20.48;;;1.80;99.90;;;;;;5009645;28;20520;-78
2022/02/26 04:07:03;;;;;;;77.93;21.65;;;1.80;99.90;;;;;;4993782;28;20095;-78
2022/02/26 04:09:31;;;;;;;74.53;20.42;;;1.80;99.90;;;;;;5021880;28;20228;-78
2022/02/26 04:11:57;;;;;;;83.20;21.10;;;1.80;99.90;;;;;;5036400;28;20072;-78
2022/02/26 04:14:24;;;;;;;72.47;18.65;;;1.80;99.90;;;;;;5024275;28;20045;-78
2022/02/26 04:16:51;;;;;;;55.00;18.60;;;1.80;99.90;;;;;;4992582;28;20053;-78
2022/02/26 04:19:18;;;;;;;63.33;19.90;;;1.80;99.90;;;;;;5007378;28;20053;-78
2022/02/26 04:21:47;;;;;;;78.57;20.67;;;1.80;99.90;;;;;;5026145;28;20397;-78
2022/02/26 04:24:14;;;;;;;68.43;20.48;;;1.80;99.90;;;;;;5026139;28;20037;-78
2022/02/26 04:26:41;;;;;;;75.60;20.48;;;1.80;99.90;;;;;;5009064;28;20054;-78
2022/02/26 04:29:08;;;;;;;77.63;20.85;;;1.80;99.90;;;;;;5009696;28;20072;-77
2022/02/26 04:31:35;;;;;;;94.32;21.90;;;1.80;99.90;;;;;;4992923;28;20048;-77
2022/02/26 04:34:02;;;;;;;77.32;23.13;;;1.80;99.90;;;;;;5007667;28;20793;-78
2022/02/26 04:36:28;;;;;;;80.05;22.45;;;1.80;99.90;;;;;;5009344;28;20053;-78
2022/02/26 04:38:55;;;;;;;75.10;21.95;;;1.80;99.90;;;;;;5014422;28;20041;-78
2022/02/26 04:41:22;;;;;;;89.40;25.02;;;1.80;99.90;;;;;;5020034;28;20091;-78
2022/02/26 04:43:49;;;;;;;80.13;23.95;;;1.80;99.90;;;;;;5027764;28;20067;-78
2022/02/26 04:46:16;;;;;;;93.05;25.13;;;1.70;99.90;;;;;;5026012;28;20041;-77
2022/02/26 04:48:43;;;;;;;97.35;25.38;;;1.70;99.90;;;;;;5011720;28;20504;-78
2022/02/26 04:51:09;;;;;;;93.55;25.77;;;1.70;99.90;;;;;;5025948;28;20103;-77
2022/02/26 04:53:38;;;;;;;90.03;25.83;;;1.70;99.90;;;;;;5008437;28;20057;-78
2022/02/26 04:56:06;;;;;;;108.53;27.73;;;1.70;99.90;;;;;;5007452;28;20072;-78
2022/02/26 04:58:34;;;;;;;115.25;30.45;;;1.60;99.90;;;;;;5008047;28;20471;-78
2022/02/26 05:01:03;;;;;;;120.95;32.03;;;1.70;99.90;;;;;;5007812;28;20515;-77
2022/02/26 05:03:31;;;;;;;123.30;29.65;;;1.70;99.90;;;;;;5007409;28;20463;-78
2022/02/26 05:06:00;;;;;;;141.23;32.30;;;1.70;99.90;;;;;;5023808;28;20041;-78
2022/02/26 05:08:27;;;;;;;104.68;28.35;;;1.70;99.90;;;;;;5025478;28;20466;-78
2022/02/26 05:10:53;;;;;;;141.52;30.80;;;1.70;99.90;;;;;;5015569;28;20038;-77
2022/02/26 05:13:20;;;;;;;118.18;29.98;;;1.60;99.90;;;;;;5008249;28;20233;-77
2022/02/26 05:15:47;;;;;;;155.35;36.22;;;1.60;99.90;;;;;;5025320;28;20119;-77
2022/02/26 05:18:14;;;;;;;128.32;33.47;;;1.70;99.90;;;;;;5024645;28;20301;-77
2022/02/26 05:20:41;;;;;;;134.13;32.15;;;1.60;99.90;;;;;;5012363;28;20061;-78
2022/02/26 05:23:08;;;;;;;170.88;37.38;;;1.60;99.90;;;;;;4987484;28;20449;-77
2022/02/26 05:25:35;;;;;;;295.35;49.53;;;1.50;99.90;;;;;;4985646;28;20050;-77
2022/02/26 05:28:02;;;;;;;177.75;36.30;;;1.60;99.90;;;;;;5007906;28;20140;-77
2022/02/26 05:30:29;;;;;;;175.48;39.53;;;1.60;99.90;;;;;;5025024;28;20068;-77
2022/02/26 05:32:56;;;;;;;173.70;37.80;;;1.70;99.90;;;;;;4990770;28;20266;-78
2022/02/26 05:35:23;;;;;;;241.10;46.03;;;1.70;99.90;;;;;;5007073;28;20586;-77
2022/02/26 05:37:50;;;;;;;215.02;40.88;;;1.60;99.90;;;;;;5026164;28;20042;-77
2022/02/26 05:40:17;;;;;;;249.98;49.20;;;1.60;99.90;;;;;;5030203;28;20130;-77
2022/02/26 05:42:44;;;;;;;279.25;50.85;;;1.60;99.90;;;;;;5008516;28;20096;-77
2022/02/26 05:45:11;;;;;;;211.63;40.17;;;1.70;99.90;;;;;;5006189;28;20041;-77
2022/02/26 05:47:37;;;;;;;227.25;45.30;;;1.70;99.90;;;;;;5023789;28;20060;-77
2022/02/26 05:50:04;;;;;;;203.70;41.90;;;1.70;99.90;;;;;;5008335;28;20040;-76
2022/02/26 05:52:31;;;;;;;190.27;40.40;;;1.70;99.90;;;;;;5027860;28;20231;-77
2022/02/26 05:54:58;;;;;;;209.10;40.38;;;1.60;99.90;;;;;;5027998;28;20560;-78
2022/02/26 05:57:25;;;;;;;230.13;47.63;;;1.60;99.90;;;;;;5008558;28;20053;-77
2022/02/26 05:59:51;;;;;;;241.55;43.55;;;1.70;99.90;;;;;;5025014;28;20136;-77
2022/02/26 06:02:18;;;;;;;309.95;52.95;;;1.70;99.90;;;;;;5030786;28;20244;-77
2022/02/26 06:04:46;;;;;;;234.50;45.70;;;1.70;99.90;;;;;;5010924;28;20213;-77
2022/02/26 06:07:13;;;;;;;262.95;48.92;;;1.70;99.90;;;;;;5027667;28;20119;-77
2022/02/26 06:09:39;;;;;;;358.05;56.58;;;1.70;99.90;;;;;;5016481;28;20065;-76
2022/02/26 06:12:07;;;;;;;330.52;55.60;;;1.70;99.90;;;;;;5044728;28;20501;-77
2022/02/26 06:14:34;;;;;;;260.63;49.00;;;1.70;99.90;;;;;;5028261;28;20053;-77
2022/02/26 06:17:02;;;;;;;305.38;50.70;;;1.60;99.90;;;;;;5038513;28;20048;-77
2022/02/26 06:19:28;;;;;;;375.08;53.70;;;1.70;99.90;;;;;;5020898;28;20119;-77
2022/02/26 06:21:55;;;;;;;351.58;54.75;;;1.60;99.90;;;;;;5007769;28;20084;-77
2022/02/26 06:24:22;;;;;;;244.88;44.25;;;1.60;99.90;;;;;;5008302;28;20398;-77
2022/02/26 06:26:49;;;;;;;321.15;52.95;;;1.60;99.90;;;;;;4992110;28;20132;-77
2022/02/26 06:29:16;;;;;;;283.75;47.33;;;1.60;99.90;;;;;;5008673;28;20468;-77
2022/02/26 06:31:42;;;;;;;289.52;49.72;;;1.60;99.90;;;;;;5024845;28;20054;-77
2022/02/26 06:34:09;;;;;;;284.88;47.72;;;1.50;99.90;;;;;;4991188;28;20053;-77
2022/02/26 06:36:38;;;;;;;331.23;52.42;;;1.50;99.90;;;;;;4993384;28;20077;-77
2022/02/26 06:39:05;;;;;;;272.75;49.42;;;1.50;99.90;;;;;;5032374;28;20050;-77
2022/02/26 06:41:32;;;;;;;332.40;53.42;;;1.50;99.90;;;;;;4999327;28;20275;-77
2022/02/26 06:43:59;;;;;;;255.88;47.60;;;1.60;99.90;;;;;;5028112;28;20041;-77
2022/02/26 06:46:28;;;;;;;359.38;55.15;;;1.60;99.90;;;;;;5009133;28;20445;-77
2022/02/26 06:48:56;;;;;;;311.83;56.03;;;1.60;99.90;;;;;;5005919;28;20056;-77
2022/02/26 06:51:22;;;;;;;301.27;53.60;;;1.60;99.90;;;;;;5023339;28;20164;-77
2022/02/26 06:53:49;;;;;;;294.58;51.97;;;1.60;99.90;;;;;;5010131;28;20316;-77
2022/02/26 06:56:16;;;;;;;399.83;62.05;;;1.50;99.90;;;;;;4986933;28;20053;-77
2022/02/26 06:58:43;;;;;;;293.90;51.75;;;1.50;99.90;;;;;;4987441;28;20073;-78
2022/02/26 07:01:09;;;;;;;269.13;50.60;;;1.50;99.90;;;;;;4999077;28;20041;-77
2022/02/26 07:03:37;;;;;;;231.95;48.80;;;1.50;99.90;;;;;;5008336;28;20050;-78
2022/02/26 07:06:03;;;;;;;262.25;52.70;;;1.50;99.90;;;;;;5004280;28;20526;-77
2022/02/26 07:08:32;;;;;;;215.05;46.58;;;1.50;99.90;;;;;;4995386;28;20072;-77
2022/02/26 07:10:59;;;;;;;249.85;51.35;;;1.50;99.90;;;;;;5009054;28;20052;-77
2022/02/26 07:13:26;;;;;;;157.27;38.30;;;1.50;99.90;;;;;;4990053;28;20141;-78
2022/02/26 07:15:54;;;;;;;140.77;36.08;;;1.50;99.90;;;;;;5024005;28;20048;-77
2022/02/26 07:18:20;;;;;;;159.88;39.88;;;1.50;99.90;;;;;;5007768;28;20606;-77
2022/02/26 07:20:47;;;;;;;191.90;44.38;;;1.50;99.90;;;;;;5006195;28;20057;-77
2022/02/26 07:23:14;;;;;;;180.63;39.97;;;1.60;99.90;;;;;;5007482;28;20077;-77
2022/02/26 07:25:42;;;;;;;188.18;41.50;;;1.60;99.90;;;;;;5006930;28;20507;-77
2022/02/26 07:28:10;;;;;;;191.05;42.63;;;1.60;99.90;;;;;;4991055;28;20107;-77
2022/02/26 07:30:37;;;;;;;150.82;37.35;;;1.60;99.90;;;;;;5007220;28;20053;-78
2022/02/26 07:33:04;;;;;;;219.23;43.97;;;1.60;99.90;;;;;;5007511;28;20146;-77
2022/02/26 07:35:31;;;;;;;227.80;48.53;;;1.70;99.90;;;;;;5008905;28;20037;-77
2022/02/26 07:37:58;;;;;;;220.50;46.58;;;1.80;99.90;;;;;;5009639;28;20041;-78
2022/02/26 07:40:25;;;;;;;323.55;58.42;;;1.90;99.90;;;;;;5015774;28;20112;-77
2022/02/26 07:42:52;;;;;;;368.75;57.72;;;1.90;99.90;;;;;;4995199;28;20219;-77
2022/02/26 07:45:19;;;;;;;299.05;55.38;;;1.80;99.90;;;;;;5003835;28;20496;-77
2022/02/26 07:47:49;;;;;;;538.47;79.53;;;1.80;99.90;;;;;;5005765;28;20132;-77
2022/02/26 07:50:16;;;;;;;232.00;47.85;;;1.90;99.90;;;;;;5017373;28;20041;-77
2022/02/26 07:52:43;;;;;;;281.42;55.55;;;1.90;99.90;;;;;;4991398;28;20076;-77
2022/02/26 07:55:10;;;;;;;284.15;54.30;;;1.90;99.90;;;;;;4987159;28;20456;-77
2022/02/26 07:57:37;;;;;;;270.05;56.58;;;1.80;99.90;;;;;;5023292;28;20080;-77
2022/02/26 08:00:05;;;;;;;214.00;47.58;;;1.80;99.90;;;;;;5005451;28;20057;-76
2022/02/26 08:02:34;;;;;;;282.67;56.63;;;1.80;99.90;;;;;;5022741;28;20053;-77
2022/02/26 08:05:00;;;;;;;211.52;48.40;;;1.80;99.90;;;;;;5021912;28;20059;-77
2022/02/26 08:07:27;;;;;;;253.55;51.97;;;1.80;99.90;;;;;;5025172;28;20566;-77
2022/02/26 08:09:54;;;;;;;305.00;58.53;;;1.80;99.90;;;;;;5011145;28;20049;-76
2022/02/26 08:12:21;;;;;;;367.67;66.47;;;1.90;99.90;;;;;;5004623;28;20320;-76
2022/02/26 08:14:48;;;;;;;109.90;31.33;;;1.90;99.90;;;;;;5021703;28;20576;-76
2022/02/26 08:17:15;;;;;;;106.97;31.80;;;1.80;99.90;;;;;;5001738;28;20041;-76
2022/02/26 08:19:41;;;;;;;141.38;35.20;;;1.70;99.90;;;;;;5010896;28;20096;-76
2022/02/26 08:22:08;;;;;;;145.02;35.65;;;1.80;99.90;;;;;;5021097;28;20069;-76
2022/02/26 08:24:38;;;;;;;160.68;38.08;;;1.90;99.90;;;;;;5023267;28;20081;-77
2022/02/26 08:27:05;;;;;;;188.20;39.50;;;1.90;99.90;;;;;;5022710;28;20045;-76
2022/02/26 08:29:32;;;;;;;180.60;40.60;;;1.80;99.90;;;;;;4989624;28;20070;-79
2022/02/26 08:32:00;;;;;;;223.07;46.83;;;1.90;99.90;;;;;;5004357;28;20053;-76
2022/02/26 08:34:27;;;;;;;302.35;52.70;;;2.10;99.90;;;;;;5004832;28;20547;-76
2022/02/26 08:36:53;;;;;;;227.82;44.38;;;2.00;99.90;;;;;;5004228;28;20068;-76
2022/02/26 08:39:20;;;;;;;225.23;44.17;;;2.10;99.90;;;;;;5012417;28;20337;-76
2022/02/26 08:41:47;;;;;;;141.00;37.85;;;2.20;99.90;;;;;;5026213;28;20441;-77
2022/02/26 08:44:14;;;;;;;117.43;34.20;;;2.20;99.90;;;;;;5003845;28;20127;-76
2022/02/26 08:46:41;;;;;;;174.15;39.05;;;2.30;99.90;;;;;;5004310;28;20088;-76
2022/02/26 08:49:08;;;;;;;136.07;36.35;;;2.40;99.90;;;;;;4996440;28;20137;-76
2022/02/26 08:51:35;;;;;;;118.95;30.45;;;2.40;99.90;;;;;;5003688;28;20049;-76
2022/02/26 08:54:04;;;;;;;187.27;40.28;;;2.40;99.90;;;;;;5004285;28;20057;-76
2022/02/26 08:56:31;;;;;;;119.43;34.00;;;2.50;99.90;;;;;;4997424;28;20100;-76
2022/02/26 08:58:58;;;;;;;97.38;29.42;;;2.60;99.90;;;;;;4985055;28;20343;-76
2022/02/26 09:01:25;;;;;;;83.82;27.92;;;2.70;99.90;;;;;;5017970;28;20689;-76
2022/02/26 09:03:53;;;;;;;81.90;30.10;;;2.70;99.90;;;;;;5021350;28;20076;-77
2022/02/26 09:06:19;;;;;;;71.80;26.27;;;2.80;99.90;;;;;;5024281;28;20076;-77
2022/02/26 09:08:46;;;;;;;63.45;22.52;;;2.90;99.90;;;;;;5017037;28;20049;-76
2022/02/26 10:42:50;;;;;;;33.92;12.73;;;3.80;99.90;;;;;;5057977;28;20696;-73
2022/02/26 10:45:22;;;;;;;35.35;10.65;;;3.90;99.90;;;;;;5054862;28;20040;-72
2022/02/26 10:47:57;;;;;;;29.52;11.70;;;4.10;99.90;;;;;;5036366;28;20218;-72
2022/02/26 10:50:25;;;;;;;32.13;11.18;;;4.60;99.90;;;;;;5016989;28;20570;-72
2022/02/26 10:52:58;;;;;;;33.10;11.27;;;4.80;99.90;;;;;;5018013;28;20045;-72
2022/02/26 10:55:58;;;;;;;30.45;10.20;;;5.20;99.90;;;;;;5017218;28;20563;-72
2022/02/26 10:58:27;;;;;;;30.98;10.00;;;5.60;99.90;;;;;;5028748;28;20543;-72
2022/02/26 11:01:01;;;;;;;27.45;11.13;;;5.90;99.90;;;;;;5037541;28;20045;-73
2022/02/26 11:03:28;;;;;;;28.45;12.90;;;6.00;99.90;;;;;;5034241;28;20162;-72
2022/02/26 11:05:56;;;;;;;27.13;12.23;;;5.80;99.90;;;;;;4999785;28;20053;-72
2022/02/26 11:08:23;;;;;;;24.65;12.80;;;5.70;99.90;;;;;;5018400;28;20052;-72
2022/02/26 11:10:53;;;;;;;27.77;13.18;;;5.60;99.90;;;;;;5022662;28;20056;-73
2022/02/26 11:13:21;;;;;;;26.30;11.18;;;5.70;99.90;;;;;;5020872;28;20053;-73
2022/02/26 11:15:51;;;;;;;25.90;10.55;;;5.90;99.90;;;;;;5003771;28;20469;-72
2022/02/26 11:18:19;;;;;;;28.30;10.13;;;5.80;99.90;;;;;;5020432;28;20045;-73
2022/02/26 11:20:46;;;;;;;28.95;10.45;;;5.80;99.90;;;;;;5022554;28;20535;-73
2022/02/26 11:23:13;;;;;;;20.52;12.13;;;6.20;99.90;;;;;;5029159;28;20140;-73
2022/02/26 11:25:40;;;;;;;30.20;14.85;;;6.60;99.90;;;;;;5027035;28;20057;-73
2022/02/26 11:28:10;;;;;;;23.83;14.88;;;6.70;99.90;;;;;;5009074;28;20049;-75
2022/02/26 11:30:42;;;;;;;26.83;17.98;;;6.70;99.90;;;;;;5027614;28;20293;-73
2022/02/26 11:33:09;;;;;;;19.45;12.48;;;6.60;99.90;;;;;;5027951;28;20053;-74
2022/02/26 11:35:56;;;;;;;22.38;12.68;;;6.60;99.90;;;;;;5025206;28;20122;-73
2022/02/26 11:38:26;;;;;;;24.35;15.70;;;6.20;99.90;;;;;;5027353;28;20377;-74
2022/02/26 11:41:23;;;;;;;24.00;14.50;;;6.40;99.90;;;;;;5014781;28;20073;-73
2022/02/26 11:43:53;;;;;;;28.00;12.27;;;6.70;99.90;;;;;;5006664;28;20103;-75
2022/02/26 11:46:26;;;;;;;23.52;14.23;;;7.00;99.90;;;;;;5023378;28;20045;-75
2022/02/26 11:48:55;;;;;;;18.77;13.10;;;7.10;99.90;;;;;;5026254;28;20041;-73
2022/02/26 11:51:34;;;;;;;23.05;16.38;;;7.20;99.90;;;;;;5033681;28;20048;-73
2022/02/26 11:54:03;;;;;;;31.05;15.50;;;7.10;99.90;;;;;;5035098;28;20343;-73
2022/02/26 11:56:44;;;;;;;26.33;13.85;;;7.20;99.90;;;;;;5034372;28;20064;-73
2022/02/26 11:59:11;;;;;;;20.15;13.75;;;7.50;99.90;;;;;;5036731;28;20503;-74
2022/02/26 12:02:08;;;;;;;23.42;15.20;;;7.50;99.90;;;;;;5033593;28;20041;-73
2022/02/26 12:04:58;;;;;;;21.17;15.63;;;7.60;99.90;;;;;;5030065;28;20976;-73
2022/02/26 12:07:36;;;;;;;15.63;13.98;;;7.40;99.90;;;;;;5013059;28;20045;-74
2022/02/26 12:10:06;;;;;;;15.82;14.23;;;7.30;99.90;;;;;;5012673;28;20239;-74
2022/02/26 12:12:46;;;;;;;16.02;14.32;;;7.30;99.90;;;;;;5012066;28;20229;-75
2022/02/26 12:15:19;;;;;;;19.63;12.57;;;7.20;99.90;;;;;;5011907;28;20253;-74
2022/02/26 12:17:53;;;;;;;24.23;15.60;;;6.80;99.90;;;;;;5012817;28;20064;-75
2022/02/26 12:20:21;;;;;;;18.25;16.17;;;6.60;99.90;;;;;;5011464;28;20064;-73
2022/02/26 12:22:50;;;;;;;28.38;16.73;;;6.80;99.90;;;;;;5011022;28;20045;-74
2022/02/26 12:25:17;;;;;;;23.58;16.10;;;7.00;99.90;;;;;;5010482;28;20371;-74
2022/02/26 12:27:59;;;;;;;29.60;16.63;;;7.50;99.90;;;;;;5020541;28;20060;-73
2022/02/26 12:30:29;;;;;;;18.65;16.13;;;7.80;99.90;;;;;;5030989;28;20517;-73
2022/02/26 12:33:02;;;;;;;21.80;16.38;;;8.00;99.90;;;;;;5030306;28;20064;-73
2022/02/26 12:35:36;;;;;;;26.05;17.27;;;7.90;99.90;;;;;;5009123;28;20410;-73
2022/02/26 12:38:21;;;;;;;18.05;16.33;;;7.90;99.90;;;;;;5009469;28;20045;-73
2022/02/26 12:40:48;;;;;;;24.80;18.00;;;7.80;99.90;;;;;;5006655;28;20563;-73
2022/02/26 12:43:15;;;;;;;21.58;19.25;;;7.60;99.90;;;;;;5011370;28;20092;-73
2022/02/26 12:45:44;;;;;;;29.48;22.55;;;7.60;99.90;;;;;;5012019;28;20060;-73
2022/02/26 12:48:12;;;;;;;35.28;20.42;;;7.60;99.90;;;;;;5009239;28;20482;-75
2022/02/26 12:50:40;;;;;;;25.10;18.83;;;7.80;99.90;;;;;;5010234;28;20049;-73
2022/02/26 12:53:08;;;;;;;30.80;21.20;;;7.90;99.90;;;;;;5012259;28;20049;-75
2022/02/26 12:55:36;;;;;;;27.75;20.33;;;8.10;99.90;;;;;;5010525;28;20045;-73
2022/02/26 12:58:03;;;;;;;29.45;18.80;;;8.30;99.90;;;;;;5009826;28;20049;-73
2022/02/26 13:00:33;;;;;;;22.35;14.93;;;8.30;99.90;;;;;;5009279;28;20199;-74
2022/02/26 13:03:02;;;;;;;28.85;15.25;;;8.00;99.90;;;;;;5009682;28;20052;-74
2022/02/26 13:05:32;;;;;;;23.73;15.43;;;7.60;99.90;;;;;;5009413;28;20053;-73
2022/02/26 13:08:18;;;;;;;26.75;14.43;;;7.50;99.90;;;;;;5009669;28;20049;-74
2022/02/26 13:10:47;;;;;;;35.45;16.38;;;7.40;99.90;;;;;;5004812;28;20045;-75
2022/02/26 13:13:18;;;;;;;36.35;15.75;;;7.30;99.90;;;;;;4994239;28;20689;-74
2022/02/26 13:15:49;;;;;;;27.88;14.00;;;7.00;99.90;;;;;;5012737;28;20056;-74
2022/02/26 13:18:18;;;;;;;20.35;13.57;;;7.30;99.90;;;;;;4990554;28;20488;-75
2022/02/26 13:20:47;;;;;;;23.85;15.02;;;7.60;99.90;;;;;;5007579;28;20186;-75
2022/02/26 13:23:17;;;;;;;29.05;16.00;;;7.70;99.90;;;;;;5010358;28;20518;-75
2022/02/26 13:25:46;;;;;;;23.20;16.85;;;7.80;99.90;;;;;;5009520;28;20160;-76
2022/02/26 13:28:15;;;;;;;26.35;18.35;;;8.00;99.90;;;;;;5009086;28;20052;-75
2022/02/26 13:30:46;;;;;;;24.70;18.83;;;8.00;99.90;;;;;;5007891;28;20140;-75
2022/02/26 13:33:23;;;;;;;35.70;20.33;;;8.30;99.90;;;;;;5011416;28;20049;-73
2022/02/26 13:35:51;;;;;;;23.80;19.95;;;8.40;99.90;;;;;;5040143;28;20308;-73
2022/02/26 13:38:19;;;;;;;26.23;23.70;;;8.40;99.90;;;;;;5008288;28;20119;-73
2022/02/26 13:40:53;;;;;;;23.83;21.50;;;8.40;99.90;;;;;;5008479;28;20433;-74
2022/02/26 13:43:22;;;;;;;23.38;21.48;;;8.70;99.90;;;;;;5010893;28;20053;-73
2022/02/26 13:45:55;;;;;;;25.42;22.73;;;9.00;99.90;;;;;;5007635;28;20069;-73
2022/02/26 13:48:22;;;;;;;25.58;21.55;;;8.90;99.90;;;;;;5008025;28;20553;-73
2022/02/26 13:50:50;;;;;;;24.05;21.60;;;8.90;99.90;;;;;;5019246;28;20632;-74
2022/02/26 13:53:19;;;;;;;23.20;20.90;;;8.80;99.90;;;;;;5010003;28;20325;-75
2022/02/26 13:56:12;;;;;;;25.00;22.13;;;8.60;99.90;;;;;;5007420;28;20115;-76
2022/02/26 13:58:39;;;;;;;20.50;18.35;;;8.40;99.90;;;;;;5007401;28;20060;-74
2022/02/26 14:01:08;;;;;;;34.75;19.80;;;8.30;99.90;;;;;;5007264;28;20045;-74
2022/02/26 14:03:46;;;;;;;20.42;17.38;;;7.90;99.90;;;;;;5010130;28;20612;-73
2022/02/26 14:06:13;;;;;;;27.70;17.08;;;7.60;99.90;;;;;;5008309;28;20401;-73
2022/02/26 14:08:41;;;;;;;23.42;17.50;;;7.50;99.90;;;;;;5006833;28;20103;-73
2022/02/26 14:11:08;;;;;;;21.08;18.05;;;7.50;99.90;;;;;;5006624;28;20049;-73